Flight Track Log - Related Links

Times and Time Zones

All times are in EDT time to prevent confusion due to time zone crossing. See the RPA3228 flight status page for this flight to view local times or setup timezone preferences in your user account.

Time Position Orientation Groundspeed Altitude Reporting Facility
EDT Latitude Longitude Course Direction KTS MPH feet Rate Location/Type
Wed 07:10:07 AM 41.5289 -93.6706 86° East 164 189 1,700  Level Minneapolis Center
Wed 07:10:50 AM 41.5117 -93.6972 229° Southwest 143 165 3,000 1,615 Climbing Minneapolis Center
Wed 07:11:51 AM 41.4597 -93.7047 186° South 233 268 4,500 1,792 Climbing Minneapolis Center
Wed 07:12:00 AM 41.4390 -93.3599 82° East  Level FlightAware Approximate
Wed 07:12:07 AM 41.4439 -93.6842 136° Southeast 257 296 5,300  Level Minneapolis Center
Wed 07:13:00 AM 41.4500 -93.2232 90° East  Level FlightAware Approximate
Wed 07:13:07 AM 41.4467 -93.5831 88° East 278 320 7,900  Level Minneapolis Center
Wed 07:14:00 AM 41.4501 -93.0855 90° East  Level FlightAware Approximate
Wed 07:14:08 AM 41.4519 -93.4728 86° East 298 343 10,500  Level Minneapolis Center
Wed 07:15:00 AM 41.4534 -92.9480 86° East  Level FlightAware Approximate
Wed 07:15:09 AM 41.4564 -93.3500 87° East 330 380 12,400  Level Minneapolis Center
Wed 07:16:09 AM 41.4622 -93.2422 86° East 343 395 14,400 2,182 Climbing Minneapolis Center
Wed 07:17:10 AM 41.4686 -93.0800 87° East 357 411 16,800 2,231 Climbing Minneapolis Center
Wed 07:18:10 AM 41.4728 -92.9494 88° East 362 417 18,900 1,884 Climbing Minneapolis Center
Wed 07:19:11 AM 41.4783 -92.8100 87° East 372 428 20,600 1,574 Climbing Minneapolis Center
Wed 07:20:12 AM 41.4844 -92.6683 87° East 381 438 22,100 1,435 Climbing Minneapolis Center
Wed 07:20:43 AM 41.4861 -92.6106 88° East 383 441 22,800 1,500 Climbing Chicago Center
Wed 07:21:44 AM 41.4911 -92.4672 87° East 387 445 24,400 1,475 Climbing Chicago Center
Wed 07:22:45 AM 41.4969 -92.3153 87° East 394 453 25,800 1,426 Climbing Chicago Center
Wed 07:23:46 AM 41.5025 -92.1361 88° East 406 467 27,300 1,317 Climbing Chicago Center
Wed 07:24:48 AM 41.5078 -91.9847 87° East 414 476 28,500 1,220 Climbing Chicago Center
Wed 07:25:49 AM 41.5122 -91.8306 88° East 418 481 29,800 1,131 Climbing Chicago Center
Wed 07:26:50 AM 41.5172 -91.6736 88° East 428 493 30,800 1,220 Climbing Chicago Center
Wed 07:27:52 AM 41.5214 -91.5150 88° East 432 497 32,300 1,317 Climbing Chicago Center
Wed 07:28:53 AM 41.5250 -91.3586 88° East 430 495 33,500 1,033 Climbing Chicago Center
Wed 07:29:54 AM 41.5281 -91.2028 88° East 425 489 34,400 732 Climbing Chicago Center
Wed 07:30:56 AM 41.5308 -91.0169 89° East 423 487 35,000 293 Climbing Chicago Center
Wed 07:31:57 AM 41.5333 -90.8606 89° East 425 489 35,000  Level Chicago Center
Wed 07:32:59 AM 41.5361 -90.7036 89° East 429 494 35,000  Level Chicago Center
Wed 07:34:00 AM 41.5381 -90.5458 89° East 435 501 35,000  Level Chicago Center
Wed 07:35:02 AM 41.5394 -90.3856 89° East 433 498 35,000  Level Chicago Center
Wed 07:36:03 AM 41.5419 -90.2231 89° East 436 502 35,000  Level Chicago Center
Wed 07:37:05 AM 41.5444 -90.0567 89° East 442 509 35,000  Level Chicago Center
Wed 07:38:06 AM 41.5461 -89.8581 89° East 445 512 35,000  Level Chicago Center
Wed 07:39:08 AM 41.5467 -89.6933 90° East 443 510 35,000  Level Chicago Center
Wed 07:40:09 AM 41.5475 -89.5325 90° East 443 510 35,000  Level Chicago Center
Wed 07:41:11 AM 41.5489 -89.3703 89° East 439 505 35,000  Level Chicago Center
Wed 07:42:12 AM 41.5489 -89.2111 90° East 432 497 35,000  Level Chicago Center
Wed 07:43:14 AM 41.5478 -89.0522 90° East 431 496 35,000  Level Chicago Center
Wed 07:44:15 AM 41.5478 -88.8586 90° East 435 501 35,000  Level Chicago Center
Wed 07:45:17 AM 41.5478 -88.7003 90° East 430 495 35,000  Level Chicago Center
Wed 07:46:18 AM 41.5481 -88.5375 90° East 437 503 35,000  Level Chicago Center
Wed 07:47:20 AM 41.5472 -88.3747 90° East 438 504 35,000  Level Chicago Center
Wed 07:48:21 AM 41.5258 -88.2192 100° East 425 489 35,000  Level Chicago Center
Wed 07:49:23 AM 41.4906 -88.0525 106° East 431 496 35,000  Level Chicago Center
Wed 07:50:25 AM 41.4575 -87.9047 107° East 426 490 35,000  Level Chicago Center
Wed 07:51:26 AM 41.4242 -87.7528 106° East 426 490 35,000  Level Chicago Center
Wed 07:52:28 AM 41.3911 -87.6006 106° East 429 494 35,000  Level Chicago Center
Wed 07:53:29 AM 41.3578 -87.4506 106° East 426 490 35,000  Level Chicago Center
Wed 07:54:31 AM 41.3175 -87.2714 107° East 426 490 35,000  Level Chicago Center
Wed 07:55:32 AM 41.2836 -87.1217 107° East 425 489 35,000  Level Chicago Center
Wed 07:56:34 AM 41.2478 -86.9706 107° East 430 495 35,000  Level Chicago Center
Wed 07:57:36 AM 41.2147 -86.8197 106° East 429 494 35,000  Level Chicago Center
Wed 07:58:37 AM 41.1806 -86.6736 107° East 426 490 35,000  Level Chicago Center
Wed 07:59:39 AM 41.1450 -86.5206 107° East 434 499 35,000  Level Chicago Center
Wed 08:00:41 AM 41.1100 -86.3703 107° East 432 497 35,000  Level Chicago Center
Wed 08:01:42 AM 41.0719 -86.2069 107° East 433 498 35,000  Level Chicago Center
Wed 08:02:44 AM 41.0361 -86.0553 107° East 431 496 35,000  Level Chicago Center
Wed 08:03:46 AM 40.9928 -85.8750 108° East 431 496 35,000  Level Chicago Center
Wed 08:04:47 AM 40.9572 -85.7236 107° East 431 496 35,000  Level Chicago Center
Wed 08:05:49 AM 40.9211 -85.5731 108° East 430 495 35,000  Level Chicago Center
Wed 08:06:51 AM 40.8847 -85.4228 108° East 431 496 35,000  Level Chicago Center
Wed 08:07:52 AM 40.8483 -85.2722 108° East 431 496 35,000  Level Chicago Center
Wed 08:08:54 AM 40.8103 -85.1217 108° East 434 499 35,000  Level Chicago Center
Wed 08:09:56 AM 40.7731 -84.9717 108° East 432 497 35,000  Level Chicago Center
Wed 08:10:58 AM 40.7369 -84.8222 108° East 429 494 35,000  Level Chicago Center
Wed 08:11:59 AM 40.6944 -84.6428 107° East 427 491 35,000  Level Chicago Center
Wed 08:12:50 AM 40.6594 -84.5169 110° East 431 496 35,000  Level Indianapolis Center
Wed 08:13:52 AM 40.6214 -84.3661 108° East 430 495 35,000  Level Indianapolis Center
Wed 08:14:53 AM 40.5819 -84.2153 109° East 431 496 35,000  Level Indianapolis Center
Wed 08:15:55 AM 40.5433 -84.0633 108° East 432 497 35,000  Level Indianapolis Center
Wed 08:16:57 AM 40.5047 -83.9131 109° East 430 495 35,000  Level Indianapolis Center
Wed 08:17:59 AM 40.4650 -83.7606 109° East 435 501 35,000  Level Indianapolis Center
Wed 08:19:00 AM 40.4256 -83.6111 109° East 428 493 35,000  Level Indianapolis Center
Wed 08:20:02 AM 40.3853 -83.4600 109° East 432 497 35,000  Level Indianapolis Center
Wed 08:21:04 AM 40.3458 -83.3064 109° East 438 504 35,000  Level Indianapolis Center
Wed 08:22:05 AM 40.3047 -83.1558 110° East 435 501 35,000  Level Indianapolis Center
Wed 08:23:07 AM 40.2583 -82.9808 109° East 431 496 35,000  Level Indianapolis Center
Wed 08:24:09 AM 40.2172 -82.8308 110° East 432 497 35,000  Level Indianapolis Center
Wed 08:25:11 AM 40.1767 -82.6806 109° East 434 499 35,000  Level Indianapolis Center
Wed 08:26:12 AM 40.1342 -82.5289 110° East 439 505 35,000  Level Indianapolis Center
Wed 08:27:14 AM 40.0892 -82.3803 112° Southeast 435 501 35,000  Level Indianapolis Center
Wed 08:28:16 AM 40.0456 -82.2314 111° Southeast 436 502 35,000  Level Indianapolis Center
Wed 08:29:18 AM 40.0011 -82.0836 111° Southeast 433 498 35,000  Level Indianapolis Center
Wed 08:30:20 AM 39.9567 -81.9356 111° Southeast 435 501 35,000  Level Indianapolis Center
Wed 08:31:21 AM 39.9119 -81.7881 112° Southeast 433 498 35,000  Level Indianapolis Center
Wed 08:32:23 AM 39.8675 -81.6431 112° Southeast 429 494 35,000  Level Indianapolis Center
Wed 08:33:24 AM 39.8231 -81.4969 112° Southeast 431 496 35,000  Level Indianapolis Center
Wed 08:34:26 AM 39.7728 -81.3319 112° Southeast 425 489 35,000  Level Indianapolis Center
Wed 08:35:28 AM 39.7292 -81.1925 112° Southeast 418 481 35,000  Level Indianapolis Center
Wed 08:36:30 AM 39.6844 -81.0489 112° Southeast 427 491 35,000  Level Indianapolis Center
Wed 08:37:31 AM 39.6406 -80.9069 112° Southeast 423 487 35,000  Level Indianapolis Center
Wed 08:38:33 AM 39.5944 -80.7653 113° Southeast 425 489 35,000  Level Indianapolis Center
Wed 08:39:35 AM 39.5503 -80.6244 112° Southeast 422 486 35,000  Level Indianapolis Center
Wed 08:40:36 AM 39.5053 -80.4811 112° Southeast 427 491 35,000  Level Indianapolis Center
Wed 08:41:38 AM 39.4597 -80.3389 112° Southeast 427 491 35,000  Level Indianapolis Center
Wed 08:42:40 AM 39.4058 -80.1706 112° Southeast 423 487 35,000 -984 Level Indianapolis Center
Wed 08:45:42 AM 39.2869 -79.7133 108° East 446 513 31,000 -988 Descending Washington Center
Wed 08:46:43 AM 39.2756 -79.5517 95° East 451 519 31,000 -295 Level Washington Center
Wed 08:47:44 AM 39.2622 -79.3847 96° East 456 525 30,400 -1,361 Descending Washington Center
Wed 08:48:42 AM 39.2478 -79.2419 97° East 456 525 28,300 -1,780 Descending Washington Center
Wed 08:49:42 AM 39.2336 -79.0858 97° East 450 518 26,900 -1,240 Descending Washington Center
Wed 08:50:43 AM 39.2214 -78.9353 96° East 432 497 25,800 -1,672 Descending Washington Center
Wed 08:51:44 AM 39.2067 -78.7872 97° East 424 488 23,500 -2,269 Descending Washington Center
Wed 08:52:42 AM 39.1917 -78.6392 97° East 419 482 21,300 -2,237 Descending Washington Center
Wed 08:53:42 AM 39.1786 -78.4967 97° East 413 475 19,100 -2,066 Descending Washington Center
Wed 08:54:44 AM 39.1631 -78.3622 98° East 393 452 17,100 -1,525 Descending Washington Center
Wed 08:55:44 AM 39.1344 -78.2408 107° East 369 425 16,000 -966 Descending Washington Center
Wed 08:56:42 AM 39.1036 -78.1272 109° East 347 399 15,200 -966 Descending Washington Center
Wed 08:57:42 AM 39.0767 -78.0167 107° East 331 381 14,100 -1,041 Descending Washington Center
Wed 08:58:43 AM 39.0475 -77.9061 109° East 326 375 13,100 -1,250 Descending Washington Center
Wed 08:59:42 AM 39.0164 -77.7903 109° East 321 369 11,600 -1,300 Descending Washington Center
Wed 09:00:43 AM 38.9931 -77.6936 107° East 315 362 10,500 -1,257 Descending Washington Center
Wed 09:01:27 AM 38.9667 -77.6000 110° East 306 352 9,400 -1,576 Descending Potomac TRACON
Wed 09:02:22 AM 38.9500 -77.5167 104° East 295 339 7,900 -1,000 Descending Potomac TRACON
Wed 09:03:27 AM 38.9667 -77.4000 80° East 282 325 7,400 -421 Descending Potomac TRACON
Wed 09:04:16 AM 39.0000 -77.3333 57° Northeast 282 325 7,100 -220 Descending Potomac TRACON
Wed 09:05:16 AM 39.0333 -77.2667 57° Northeast 254 292 7,000 -53 Descending Potomac TRACON
Wed 09:06:10 AM 39.0667 -77.1833 63° Northeast 251 289 7,000  Level Potomac TRACON
Wed 09:07:10 AM 39.0667 -77.1000 90° East 250 288 7,000  Level Potomac TRACON
Wed 09:08:04 AM 39.0667 -77.0167 90° East 248 285 7,000  Level Potomac TRACON
Wed 09:09:04 AM 39.0333 -76.9500 123° Southeast 200 230 7,000 -400 Level Potomac TRACON
Wed 09:10:04 AM 39.0000 -76.9833 218° Southwest 178 205 6,200 -500 Descending Potomac TRACON
Wed 09:11:04 AM 39.0000 -77.0333 270° West 190 219 6,000 -200 Descending Potomac TRACON
Wed 09:12:04 AM 39.0500 -77.0833 322° Northwest 184 212 5,800 -526 Descending Potomac TRACON
Wed 09:12:58 AM 39.0833 -77.1167 322° Northwest 180 207 5,000 -421 Descending Potomac TRACON
Wed 09:13:58 AM 39.1167 -77.1500 322° Northwest 186 214 5,000 -476 Level Potomac TRACON
Wed 09:15:04 AM 39.0667 -77.2000 218° Southwest 176 203 4,000 -952 Descending Potomac TRACON
Wed 09:16:04 AM 39.0333 -77.2167 201° Southwest 185 213 3,000 -550 Descending Potomac TRACON
Wed 09:17:04 AM 38.9833 -77.1833 153° Southeast 184 212 2,900 -100 Descending Potomac TRACON

Login

Don't have an account? Register now (free) for customized features, flight alerts, and more!